sensor_id;sensor_type;location;lat;lon;timestamp;P1;durP1;ratioP1;P2;durP2;ratioP2
22871;SDS011;11603;44.910;8.630;2022-08-19T00:00:32;6.32;;;2.97;;
22871;SDS011;11603;44.910;8.630;2022-08-19T00:03:26;5.13;;;2.53;;
22871;SDS011;11603;44.910;8.630;2022-08-19T00:09:04;9.23;;;2.30;;
22871;SDS011;11603;44.910;8.630;2022-08-19T00:11:47;5.18;;;2.22;;
22871;SDS011;11603;44.910;8.630;2022-08-19T00:14:19;4.25;;;1.85;;
22871;SDS011;11603;44.910;8.630;2022-08-19T00:17:12;3.53;;;2.13;;
22871;SDS011;11603;44.910;8.630;2022-08-19T00:19:39;3.92;;;1.83;;
22871;SDS011;11603;44.910;8.630;2022-08-19T00:22:13;5.28;;;1.90;;
22871;SDS011;11603;44.910;8.630;2022-08-19T00:24:46;3.70;;;1.85;;
22871;SDS011;11603;44.910;8.630;2022-08-19T00:27:18;5.22;;;1.83;;
22871;SDS011;11603;44.910;8.630;2022-08-19T00:29:43;3.63;;;1.60;;
22871;SDS011;11603;44.910;8.630;2022-08-19T00:32:12;3.38;;;1.60;;
22871;SDS011;11603;44.910;8.630;2022-08-19T00:34:43;3.50;;;1.40;;
22871;SDS011;11603;44.910;8.630;2022-08-19T00:37:10;1.52;;;1.17;;
22871;SDS011;11603;44.910;8.630;2022-08-19T00:39:35;4.78;;;1.33;;
22871;SDS011;11603;44.910;8.630;2022-08-19T00:42:03;1.63;;;1.25;;
22871;SDS011;11603;44.910;8.630;2022-08-19T00:44:32;2.00;;;1.17;;
22871;SDS011;11603;44.910;8.630;2022-08-19T00:47:01;3.20;;;1.20;;
22871;SDS011;11603;44.910;8.630;2022-08-19T00:49:34;2.25;;;1.20;;
22871;SDS011;11603;44.910;8.630;2022-08-19T00:52:09;1.80;;;1.08;;
22871;SDS011;11603;44.910;8.630;2022-08-19T00:54:39;3.17;;;1.10;;
22871;SDS011;11603;44.910;8.630;2022-08-19T00:57:08;2.38;;;1.20;;
22871;SDS011;11603;44.910;8.630;2022-08-19T00:59:37;3.20;;;1.02;;
22871;SDS011;11603;44.910;8.630;2022-08-19T01:02:05;4.32;;;1.30;;
22871;SDS011;11603;44.910;8.630;2022-08-19T01:04:31;3.15;;;0.98;;
22871;SDS011;11603;44.910;8.630;2022-08-19T01:06:56;2.05;;;0.90;;
22871;SDS011;11603;44.910;8.630;2022-08-19T01:09:23;2.08;;;0.90;;
22871;SDS011;11603;44.910;8.630;2022-08-19T01:11:49;3.83;;;1.40;;
22871;SDS011;11603;44.910;8.630;2022-08-19T01:14:17;2.40;;;1.08;;
22871;SDS011;11603;44.910;8.630;2022-08-19T01:16:54;2.13;;;0.70;;
22871;SDS011;11603;44.910;8.630;2022-08-19T01:19:37;2.05;;;1.00;;
22871;SDS011;11603;44.910;8.630;2022-08-19T01:22:16;2.42;;;1.00;;
22871;SDS011;11603;44.910;8.630;2022-08-19T01:25:10;0.95;;;0.75;;
22871;SDS011;11603;44.910;8.630;2022-08-19T01:27:46;1.45;;;0.80;;
22871;SDS011;11603;44.910;8.630;2022-08-19T01:30:14;4.35;;;0.77;;
22871;SDS011;11603;44.910;8.630;2022-08-19T01:32:52;2.28;;;0.85;;
22871;SDS011;11603;44.910;8.630;2022-08-19T01:35:19;1.80;;;0.77;;
22871;SDS011;11603;44.910;8.630;2022-08-19T01:37:46;3.13;;;0.80;;
22871;SDS011;11603;44.910;8.630;2022-08-19T01:40:14;1.30;;;0.70;;
22871;SDS011;11603;44.910;8.630;2022-08-19T01:42:40;1.48;;;0.90;;
22871;SDS011;11603;44.910;8.630;2022-08-19T01:45:06;3.35;;;0.90;;
22871;SDS011;11603;44.910;8.630;2022-08-19T01:47:35;1.92;;;0.90;;
22871;SDS011;11603;44.910;8.630;2022-08-19T01:50:01;3.00;;;0.82;;
22871;SDS011;11603;44.910;8.630;2022-08-19T01:52:28;2.35;;;0.80;;
22871;SDS011;11603;44.910;8.630;2022-08-19T01:54:59;2.63;;;0.68;;
22871;SDS011;11603;44.910;8.630;2022-08-19T01:57:25;1.13;;;0.65;;
22871;SDS011;11603;44.910;8.630;2022-08-19T01:59:51;1.25;;;0.80;;
22871;SDS011;11603;44.910;8.630;2022-08-19T02:02:16;2.22;;;0.80;;
22871;SDS011;11603;44.910;8.630;2022-08-19T02:04:42;1.55;;;0.60;;
22871;SDS011;11603;44.910;8.630;2022-08-19T02:07:07;3.83;;;0.80;;
22871;SDS011;11603;44.910;8.630;2022-08-19T02:09:34;0.95;;;0.80;;
22871;SDS011;11603;44.910;8.630;2022-08-19T02:12:01;1.73;;;0.70;;
22871;SDS011;11603;44.910;8.630;2022-08-19T02:14:26;1.00;;;0.60;;
22871;SDS011;11603;44.910;8.630;2022-08-19T02:16:52;1.25;;;0.77;;
22871;SDS011;11603;44.910;8.630;2022-08-19T02:19:17;3.03;;;0.60;;
22871;SDS011;11603;44.910;8.630;2022-08-19T02:21:43;1.58;;;0.70;;
22871;SDS011;11603;44.910;8.630;2022-08-19T02:24:09;1.13;;;0.80;;
22871;SDS011;11603;44.910;8.630;2022-08-19T02:26:34;3.70;;;0.80;;
22871;SDS011;11603;44.910;8.630;2022-08-19T02:29:02;3.03;;;0.80;;
22871;SDS011;11603;44.910;8.630;2022-08-19T02:31:28;1.27;;;0.73;;
22871;SDS011;11603;44.910;8.630;2022-08-19T02:33:56;2.25;;;0.80;;
22871;SDS011;11603;44.910;8.630;2022-08-19T02:36:22;2.17;;;0.70;;
22871;SDS011;11603;44.910;8.630;2022-08-19T02:38:48;2.45;;;0.90;;
22871;SDS011;11603;44.910;8.630;2022-08-19T02:41:19;1.40;;;0.70;;
22871;SDS011;11603;44.910;8.630;2022-08-19T02:43:46;3.15;;;0.88;;
22871;SDS011;11603;44.910;8.630;2022-08-19T02:46:20;1.35;;;0.80;;
22871;SDS011;11603;44.910;8.630;2022-08-19T02:48:48;1.70;;;0.70;;
22871;SDS011;11603;44.910;8.630;2022-08-19T02:51:16;2.25;;;0.80;;
22871;SDS011;11603;44.910;8.630;2022-08-19T02:53:45;3.17;;;0.70;;
22871;SDS011;11603;44.910;8.630;2022-08-19T02:56:12;1.95;;;0.88;;
22871;SDS011;11603;44.910;8.630;2022-08-19T02:58:38;1.50;;;0.60;;
22871;SDS011;11603;44.910;8.630;2022-08-19T03:01:04;3.78;;;0.90;;
22871;SDS011;11603;44.910;8.630;2022-08-19T03:03:31;3.63;;;0.70;;
22871;SDS011;11603;44.910;8.630;2022-08-19T03:06:10;4.45;;;0.80;;
22871;SDS011;11603;44.910;8.630;2022-08-19T03:08:39;1.58;;;0.80;;
22871;SDS011;11603;44.910;8.630;2022-08-19T03:11:06;2.65;;;1.00;;
22871;SDS011;11603;44.910;8.630;2022-08-19T03:30:54;2.85;;;1.15;;
22871;SDS011;11603;44.910;8.630;2022-08-19T03:34:39;1.52;;;0.90;;
22871;SDS011;11603;44.910;8.630;2022-08-19T03:37:24;5.40;;;0.90;;
22871;SDS011;11603;44.910;8.630;2022-08-19T03:40:27;2.08;;;1.13;;
22871;SDS011;11603;44.910;8.630;2022-08-19T03:46:17;2.03;;;0.98;;
22871;SDS011;11603;44.910;8.630;2022-08-19T03:49:00;2.25;;;1.35;;
22871;SDS011;11603;44.910;8.630;2022-08-19T03:54:54;2.17;;;0.85;;
22871;SDS011;11603;44.910;8.630;2022-08-19T03:57:20;2.42;;;0.88;;
22871;SDS011;11603;44.910;8.630;2022-08-19T03:59:45;0.80;;;0.60;;
22871;SDS011;11603;44.910;8.630;2022-08-19T04:02:13;1.38;;;0.70;;
22871;SDS011;11603;44.910;8.630;2022-08-19T04:04:40;0.55;;;0.47;;
22871;SDS011;11603;44.910;8.630;2022-08-19T04:07:08;1.80;;;0.75;;
22871;SDS011;11603;44.910;8.630;2022-08-19T04:09:35;2.80;;;0.80;;
22871;SDS011;11603;44.910;8.630;2022-08-19T04:12:04;3.10;;;0.80;;
22871;SDS011;11603;44.910;8.630;2022-08-19T04:14:31;5.68;;;1.15;;
22871;SDS011;11603;44.910;8.630;2022-08-19T04:16:59;1.13;;;0.70;;
22871;SDS011;11603;44.910;8.630;2022-08-19T04:19:29;3.38;;;0.90;;
22871;SDS011;11603;44.910;8.630;2022-08-19T04:21:57;1.30;;;0.90;;
22871;SDS011;11603;44.910;8.630;2022-08-19T04:24:23;4.18;;;1.00;;
22871;SDS011;11603;44.910;8.630;2022-08-19T04:26:50;2.05;;;0.70;;
22871;SDS011;11603;44.910;8.630;2022-08-19T04:29:19;4.20;;;0.88;;
22871;SDS011;11603;44.910;8.630;2022-08-19T04:31:49;1.30;;;0.80;;
22871;SDS011;11603;44.910;8.630;2022-08-19T04:34:19;2.50;;;0.90;;
22871;SDS011;11603;44.910;8.630;2022-08-19T04:36:49;4.68;;;0.90;;
22871;SDS011;11603;44.910;8.630;2022-08-19T04:39:19;1.75;;;0.90;;
22871;SDS011;11603;44.910;8.630;2022-08-19T04:41:48;1.20;;;0.90;;
22871;SDS011;11603;44.910;8.630;2022-08-19T04:44:32;0.73;;;0.60;;
22871;SDS011;11603;44.910;8.630;2022-08-19T04:46:59;1.85;;;1.13;;
22871;SDS011;11603;44.910;8.630;2022-08-19T04:49:30;3.95;;;1.00;;
22871;SDS011;11603;44.910;8.630;2022-08-19T04:51:55;1.33;;;0.90;;
22871;SDS011;11603;44.910;8.630;2022-08-19T04:54:24;3.53;;;0.90;;
22871;SDS011;11603;44.910;8.630;2022-08-19T04:56:51;4.07;;;1.00;;
22871;SDS011;11603;44.910;8.630;2022-08-19T04:59:18;2.78;;;0.98;;
22871;SDS011;11603;44.910;8.630;2022-08-19T05:01:45;2.17;;;0.90;;
22871;SDS011;11603;44.910;8.630;2022-08-19T05:04:14;2.53;;;0.98;;
22871;SDS011;11603;44.910;8.630;2022-08-19T05:06:42;3.15;;;0.80;;
22871;SDS011;11603;44.910;8.630;2022-08-19T05:09:08;3.17;;;0.95;;
22871;SDS011;11603;44.910;8.630;2022-08-19T05:11:34;4.13;;;0.93;;
22871;SDS011;11603;44.910;8.630;2022-08-19T05:14:08;2.78;;;0.82;;
22871;SDS011;11603;44.910;8.630;2022-08-19T05:16:34;3.00;;;0.77;;
22871;SDS011;11603;44.910;8.630;2022-08-19T05:19:00;3.38;;;1.00;;
22871;SDS011;11603;44.910;8.630;2022-08-19T05:21:44;1.90;;;0.80;;
22871;SDS011;11603;44.910;8.630;2022-08-19T05:24:28;1.38;;;0.80;;
22871;SDS011;11603;44.910;8.630;2022-08-19T05:26:59;1.95;;;0.70;;
22871;SDS011;11603;44.910;8.630;2022-08-19T05:29:27;3.03;;;0.77;;
22871;SDS011;11603;44.910;8.630;2022-08-19T05:31:54;2.88;;;0.80;;
22871;SDS011;11603;44.910;8.630;2022-08-19T05:34:21;2.50;;;0.90;;
22871;SDS011;11603;44.910;8.630;2022-08-19T05:36:58;3.00;;;0.80;;
22871;SDS011;11603;44.910;8.630;2022-08-19T05:39:26;1.55;;;0.80;;
22871;SDS011;11603;44.910;8.630;2022-08-19T05:42:14;1.92;;;0.70;;
22871;SDS011;11603;44.910;8.630;2022-08-19T05:44:42;2.10;;;0.90;;
22871;SDS011;11603;44.910;8.630;2022-08-19T05:47:13;2.80;;;0.93;;
22871;SDS011;11603;44.910;8.630;2022-08-19T05:49:39;2.08;;;0.95;;
22871;SDS011;11603;44.910;8.630;2022-08-19T05:52:07;2.60;;;2.00;;
22871;SDS011;11603;44.910;8.630;2022-08-19T05:54:42;4.95;;;2.13;;
22871;SDS011;11603;44.910;8.630;2022-08-19T05:57:14;3.03;;;1.15;;
22871;SDS011;11603;44.910;8.630;2022-08-19T05:59:39;2.38;;;1.00;;
22871;SDS011;11603;44.910;8.630;2022-08-19T06:02:05;5.43;;;1.20;;
22871;SDS011;11603;44.910;8.630;2022-08-19T06:04:31;3.80;;;1.25;;
22871;SDS011;11603;44.910;8.630;2022-08-19T06:06:57;1.48;;;0.90;;
22871;SDS011;11603;44.910;8.630;2022-08-19T06:09:23;4.97;;;1.38;;
22871;SDS011;11603;44.910;8.630;2022-08-19T06:11:51;1.48;;;1.00;;
22871;SDS011;11603;44.910;8.630;2022-08-19T06:14:21;2.80;;;1.20;;
22871;SDS011;11603;44.910;8.630;2022-08-19T06:16:49;6.82;;;1.10;;
22871;SDS011;11603;44.910;8.630;2022-08-19T06:19:19;1.38;;;0.85;;
22871;SDS011;11603;44.910;8.630;2022-08-19T06:21:49;2.25;;;1.00;;
22871;SDS011;11603;44.910;8.630;2022-08-19T06:24:20;7.35;;;1.50;;
22871;SDS011;11603;44.910;8.630;2022-08-19T06:26:49;4.07;;;1.10;;
22871;SDS011;11603;44.910;8.630;2022-08-19T06:29:18;1.25;;;1.05;;
22871;SDS011;11603;44.910;8.630;2022-08-19T06:31:46;5.68;;;1.20;;
22871;SDS011;11603;44.910;8.630;2022-08-19T06:34:17;4.97;;;1.17;;
22871;SDS011;11603;44.910;8.630;2022-08-19T06:36:44;3.35;;;1.10;;
22871;SDS011;11603;44.910;8.630;2022-08-19T06:39:19;2.08;;;1.30;;
22871;SDS011;11603;44.910;8.630;2022-08-19T06:41:48;4.15;;;1.38;;
22871;SDS011;11603;44.910;8.630;2022-08-19T06:44:16;1.70;;;1.20;;
22871;SDS011;11603;44.910;8.630;2022-08-19T06:46:43;2.50;;;1.10;;
22871;SDS011;11603;44.910;8.630;2022-08-19T06:49:09;2.70;;;1.30;;
22871;SDS011;11603;44.910;8.630;2022-08-19T06:51:38;2.17;;;1.20;;
22871;SDS011;11603;44.910;8.630;2022-08-19T06:54:04;1.95;;;1.10;;
22871;SDS011;11603;44.910;8.630;2022-08-19T06:56:30;7.40;;;1.00;;
22871;SDS011;11603;44.910;8.630;2022-08-19T06:59:05;1.63;;;1.10;;
22871;SDS011;11603;44.910;8.630;2022-08-19T07:01:44;6.38;;;1.10;;
22871;SDS011;11603;44.910;8.630;2022-08-19T07:04:21;4.03;;;1.27;;
22871;SDS011;11603;44.910;8.630;2022-08-19T07:06:49;2.53;;;1.33;;
22871;SDS011;11603;44.910;8.630;2022-08-19T07:09:16;4.50;;;1.20;;
22871;SDS011;11603;44.910;8.630;2022-08-19T07:11:46;1.73;;;1.23;;
22871;SDS011;11603;44.910;8.630;2022-08-19T07:14:14;3.95;;;1.58;;
22871;SDS011;11603;44.910;8.630;2022-08-19T07:16:43;4.63;;;1.48;;
22871;SDS011;11603;44.910;8.630;2022-08-19T07:19:12;4.32;;;1.52;;
22871;SDS011;11603;44.910;8.630;2022-08-19T07:21:38;4.25;;;1.25;;
22871;SDS011;11603;44.910;8.630;2022-08-19T07:24:04;6.43;;;1.58;;
22871;SDS011;11603;44.910;8.630;2022-08-19T07:26:31;2.92;;;1.10;;
22871;SDS011;11603;44.910;8.630;2022-08-19T07:28:58;2.92;;;1.40;;
22871;SDS011;11603;44.910;8.630;2022-08-19T07:31:26;2.20;;;1.40;;
22871;SDS011;11603;44.910;8.630;2022-08-19T07:33:53;2.50;;;1.25;;
22871;SDS011;11603;44.910;8.630;2022-08-19T07:36:22;2.15;;;1.20;;
22871;SDS011;11603;44.910;8.630;2022-08-19T07:38:51;3.35;;;1.20;;
22871;SDS011;11603;44.910;8.630;2022-08-19T07:41:20;4.88;;;1.20;;
22871;SDS011;11603;44.910;8.630;2022-08-19T07:43:47;3.30;;;1.00;;
22871;SDS011;11603;44.910;8.630;2022-08-19T07:46:14;1.75;;;1.10;;
22871;SDS011;11603;44.910;8.630;2022-08-19T07:48:42;2.55;;;1.20;;
22871;SDS011;11603;44.910;8.630;2022-08-19T07:51:10;2.67;;;1.15;;
22871;SDS011;11603;44.910;8.630;2022-08-19T07:53:38;2.38;;;1.25;;
22871;SDS011;11603;44.910;8.630;2022-08-19T07:56:04;5.50;;;1.08;;
22871;SDS011;11603;44.910;8.630;2022-08-19T07:58:34;6.45;;;1.25;;
22871;SDS011;11603;44.910;8.630;2022-08-19T08:01:04;2.78;;;1.00;;
22871;SDS011;11603;44.910;8.630;2022-08-19T08:03:31;1.55;;;0.80;;
22871;SDS011;11603;44.910;8.630;2022-08-19T08:06:15;1.05;;;0.90;;
22871;SDS011;11603;44.910;8.630;2022-08-19T08:09:00;1.77;;;1.20;;
22871;SDS011;11603;44.910;8.630;2022-08-19T08:11:53;3.17;;;1.05;;
22871;SDS011;11603;44.910;8.630;2022-08-19T08:14:26;1.88;;;0.80;;
22871;SDS011;11603;44.910;8.630;2022-08-19T08:17:02;2.70;;;0.90;;
22871;SDS011;11603;44.910;8.630;2022-08-19T08:19:29;2.17;;;0.90;;
22871;SDS011;11603;44.910;8.630;2022-08-19T08:21:56;5.00;;;0.98;;
22871;SDS011;11603;44.910;8.630;2022-08-19T08:24:23;5.90;;;0.93;;
22871;SDS011;11603;44.910;8.630;2022-08-19T08:26:50;1.55;;;0.70;;
22871;SDS011;11603;44.910;8.630;2022-08-19T08:29:16;3.88;;;1.00;;
22871;SDS011;11603;44.910;8.630;2022-08-19T08:31:41;9.35;;;1.08;;
22871;SDS011;11603;44.910;8.630;2022-08-19T08:34:09;4.57;;;0.90;;
22871;SDS011;11603;44.910;8.630;2022-08-19T08:36:37;1.58;;;1.13;;
22871;SDS011;11603;44.910;8.630;2022-08-19T08:39:10;3.13;;;1.30;;
22871;SDS011;11603;44.910;8.630;2022-08-19T08:47:03;6.43;;;1.98;;
22871;SDS011;11603;44.910;8.630;2022-08-19T08:49:43;3.40;;;1.48;;
22871;SDS011;11603;44.910;8.630;2022-08-19T08:52:18;5.03;;;1.30;;
22871;SDS011;11603;44.910;8.630;2022-08-19T08:54:51;1.67;;;1.00;;
22871;SDS011;11603;44.910;8.630;2022-08-19T09:00:12;2.85;;;1.30;;
22871;SDS011;11603;44.910;8.630;2022-08-19T09:02:42;5.18;;;1.10;;
22871;SDS011;11603;44.910;8.630;2022-08-19T09:05:08;3.45;;;1.10;;
22871;SDS011;11603;44.910;8.630;2022-08-19T09:15:43;3.70;;;1.33;;
22871;SDS011;11603;44.910;8.630;2022-08-19T09:18:13;6.28;;;1.30;;
22871;SDS011;11603;44.910;8.630;2022-08-19T09:20:41;4.75;;;1.50;;
22871;SDS011;11603;44.910;8.630;2022-08-19T09:23:07;3.95;;;1.70;;
22871;SDS011;11603;44.910;8.630;2022-08-19T09:25:33;4.43;;;1.83;;
22871;SDS011;11603;44.910;8.630;2022-08-19T09:27:59;6.53;;;4.55;;
22871;SDS011;11603;44.910;8.630;2022-08-19T09:30:29;8.48;;;4.18;;
22871;SDS011;11603;44.910;8.630;2022-08-19T09:32:56;12.48;;;6.78;;
22871;SDS011;11603;44.910;8.630;2022-08-19T09:35:23;13.02;;;9.00;;
22871;SDS011;11603;44.910;8.630;2022-08-19T09:37:51;7.35;;;3.78;;
22871;SDS011;11603;44.910;8.630;2022-08-19T09:40:17;5.22;;;1.58;;
22871;SDS011;11603;44.910;8.630;2022-08-19T09:42:44;4.70;;;1.83;;
22871;SDS011;11603;44.910;8.630;2022-08-19T09:45:12;6.95;;;2.00;;
22871;SDS011;11603;44.910;8.630;2022-08-19T09:47:39;2.35;;;1.42;;
22871;SDS011;11603;44.910;8.630;2022-08-19T09:50:05;3.17;;;1.63;;
22871;SDS011;11603;44.910;8.630;2022-08-19T09:52:32;2.08;;;1.48;;
22871;SDS011;11603;44.910;8.630;2022-08-19T09:54:59;7.15;;;1.85;;
22871;SDS011;11603;44.910;8.630;2022-08-19T09:57:26;2.78;;;1.90;;
22871;SDS011;11603;44.910;8.630;2022-08-19T09:59:51;1.77;;;1.30;;
22871;SDS011;11603;44.910;8.630;2022-08-19T10:02:18;3.00;;;1.27;;
22871;SDS011;11603;44.910;8.630;2022-08-19T10:04:44;3.13;;;1.23;;
22871;SDS011;11603;44.910;8.630;2022-08-19T10:07:29;5.70;;;1.30;;
22871;SDS011;11603;44.910;8.630;2022-08-19T10:09:54;3.60;;;1.30;;
22871;SDS011;11603;44.910;8.630;2022-08-19T10:12:20;2.47;;;1.00;;
22871;SDS011;11603;44.910;8.630;2022-08-19T10:14:46;2.85;;;1.50;;
22871;SDS011;11603;44.910;8.630;2022-08-19T10:17:12;2.38;;;1.05;;
22871;SDS011;11603;44.910;8.630;2022-08-19T10:19:37;3.58;;;1.40;;
22871;SDS011;11603;44.910;8.630;2022-08-19T10:22:03;1.85;;;1.20;;
22871;SDS011;11603;44.910;8.630;2022-08-19T10:24:32;2.53;;;1.40;;
22871;SDS011;11603;44.910;8.630;2022-08-19T10:27:01;1.98;;;1.20;;
22871;SDS011;11603;44.910;8.630;2022-08-19T10:29:29;1.35;;;0.93;;
22871;SDS011;11603;44.910;8.630;2022-08-19T10:31:55;3.50;;;1.38;;
22871;SDS011;11603;44.910;8.630;2022-08-19T10:34:22;5.38;;;1.50;;
22871;SDS011;11603;44.910;8.630;2022-08-19T10:36:48;5.00;;;1.40;;
22871;SDS011;11603;44.910;8.630;2022-08-19T10:39:14;3.47;;;1.55;;
22871;SDS011;11603;44.910;8.630;2022-08-19T10:41:40;3.63;;;1.90;;
22871;SDS011;11603;44.910;8.630;2022-08-19T10:44:09;2.35;;;1.38;;
22871;SDS011;11603;44.910;8.630;2022-08-19T10:46:37;1.48;;;1.17;;
22871;SDS011;11603;44.910;8.630;2022-08-19T10:49:06;3.38;;;1.40;;
22871;SDS011;11603;44.910;8.630;2022-08-19T10:51:33;2.25;;;1.30;;
22871;SDS011;11603;44.910;8.630;2022-08-19T10:54:18;2.67;;;1.33;;
22871;SDS011;11603;44.910;8.630;2022-08-19T10:56:44;2.95;;;1.15;;
22871;SDS011;11603;44.910;8.630;2022-08-19T10:59:22;3.15;;;1.17;;
22871;SDS011;11603;44.910;8.630;2022-08-19T11:01:50;3.17;;;1.33;;
22871;SDS011;11603;44.910;8.630;2022-08-19T11:04:17;1.15;;;1.02;;
22871;SDS011;11603;44.910;8.630;2022-08-19T11:06:44;2.58;;;1.38;;
22871;SDS011;11603;44.910;8.630;2022-08-19T11:09:12;3.15;;;1.10;;
22871;SDS011;11603;44.910;8.630;2022-08-19T11:11:42;1.52;;;1.05;;
22871;SDS011;11603;44.910;8.630;2022-08-19T11:14:12;2.17;;;1.40;;
22871;SDS011;11603;44.910;8.630;2022-08-19T11:16:39;4.95;;;1.08;;
22871;SDS011;11603;44.910;8.630;2022-08-19T11:19:06;2.65;;;1.20;;
22871;SDS011;11603;44.910;8.630;2022-08-19T11:21:34;3.60;;;1.50;;
22871;SDS011;11603;44.910;8.630;2022-08-19T11:24:04;2.97;;;1.63;;
22871;SDS011;11603;44.910;8.630;2022-08-19T11:26:34;3.85;;;1.63;;
22871;SDS011;11603;44.910;8.630;2022-08-19T11:29:01;3.03;;;1.20;;
22871;SDS011;11603;44.910;8.630;2022-08-19T11:31:29;1.48;;;1.05;;
22871;SDS011;11603;44.910;8.630;2022-08-19T11:33:56;7.25;;;1.38;;
22871;SDS011;11603;44.910;8.630;2022-08-19T11:36:25;3.53;;;1.55;;
22871;SDS011;11603;44.910;8.630;2022-08-19T11:38:51;1.52;;;1.25;;
22871;SDS011;11603;44.910;8.630;2022-08-19T11:41:17;4.82;;;1.20;;
22871;SDS011;11603;44.910;8.630;2022-08-19T11:43:44;3.85;;;1.30;;
22871;SDS011;11603;44.910;8.630;2022-08-19T11:46:11;4.10;;;1.35;;
22871;SDS011;11603;44.910;8.630;2022-08-19T11:48:38;5.45;;;1.35;;
22871;SDS011;11603;44.910;8.630;2022-08-19T11:51:05;2.33;;;1.40;;
22871;SDS011;11603;44.910;8.630;2022-08-19T11:53:32;2.28;;;1.05;;
22871;SDS011;11603;44.910;8.630;2022-08-19T11:55:59;3.78;;;1.40;;
22871;SDS011;11603;44.910;8.630;2022-08-19T11:58:25;3.40;;;1.20;;
22871;SDS011;11603;44.910;8.630;2022-08-19T12:00:51;1.77;;;1.10;;
22871;SDS011;11603;44.910;8.630;2022-08-19T12:03:16;3.47;;;1.50;;
22871;SDS011;11603;44.910;8.630;2022-08-19T12:05:43;5.53;;;1.80;;
22871;SDS011;11603;44.910;8.630;2022-08-19T12:08:09;5.35;;;1.67;;
22871;SDS011;11603;44.910;8.630;2022-08-19T12:10:35;4.72;;;1.20;;
22871;SDS011;11603;44.910;8.630;2022-08-19T12:13:01;1.90;;;1.00;;
22871;SDS011;11603;44.910;8.630;2022-08-19T12:15:27;3.53;;;1.27;;
22871;SDS011;11603;44.910;8.630;2022-08-19T12:17:54;3.08;;;1.20;;
22871;SDS011;11603;44.910;8.630;2022-08-19T12:20:22;5.90;;;1.25;;
22871;SDS011;11603;44.910;8.630;2022-08-19T12:22:49;4.28;;;1.20;;
22871;SDS011;11603;44.910;8.630;2022-08-19T12:25:15;1.92;;;1.08;;
22871;SDS011;11603;44.910;8.630;2022-08-19T12:27:41;2.38;;;1.38;;
22871;SDS011;11603;44.910;8.630;2022-08-19T12:30:09;5.32;;;1.13;;
22871;SDS011;11603;44.910;8.630;2022-08-19T12:32:37;2.15;;;0.95;;
22871;SDS011;11603;44.910;8.630;2022-08-19T12:35:03;1.60;;;1.10;;
22871;SDS011;11603;44.910;8.630;2022-08-19T12:37:29;1.67;;;1.00;;
22871;SDS011;11603;44.910;8.630;2022-08-19T12:39:56;2.25;;;1.08;;
22871;SDS011;11603;44.910;8.630;2022-08-19T12:42:22;3.10;;;1.10;;
22871;SDS011;11603;44.910;8.630;2022-08-19T12:44:47;2.65;;;1.00;;
22871;SDS011;11603;44.910;8.630;2022-08-19T12:47:13;3.75;;;1.20;;
22871;SDS011;11603;44.910;8.630;2022-08-19T12:49:39;4.45;;;1.10;;
22871;SDS011;11603;44.910;8.630;2022-08-19T12:52:06;2.08;;;1.17;;
22871;SDS011;11603;44.910;8.630;2022-08-19T12:54:33;4.10;;;1.20;;
22871;SDS011;11603;44.910;8.630;2022-08-19T12:57:00;3.97;;;1.02;;
22871;SDS011;11603;44.910;8.630;2022-08-19T12:59:30;3.25;;;1.08;;
22871;SDS011;11603;44.910;8.630;2022-08-19T13:01:55;6.32;;;1.20;;
22871;SDS011;11603;44.910;8.630;2022-08-19T13:04:21;3.47;;;0.90;;
22871;SDS011;11603;44.910;8.630;2022-08-19T13:06:47;5.00;;;1.42;;
22871;SDS011;11603;44.910;8.630;2022-08-19T13:09:12;2.95;;;1.00;;
22871;SDS011;11603;44.910;8.630;2022-08-19T13:11:38;3.60;;;1.00;;
22871;SDS011;11603;44.910;8.630;2022-08-19T13:14:04;3.15;;;1.30;;
22871;SDS011;11603;44.910;8.630;2022-08-19T13:16:30;2.45;;;1.23;;
22871;SDS011;11603;44.910;8.630;2022-08-19T13:18:56;2.45;;;1.00;;
22871;SDS011;11603;44.910;8.630;2022-08-19T13:21:25;4.72;;;1.20;;
22871;SDS011;11603;44.910;8.630;2022-08-19T13:27:01;2.83;;;1.10;;
22871;SDS011;11603;44.910;8.630;2022-08-19T13:29:27;3.83;;;1.20;;
22871;SDS011;11603;44.910;8.630;2022-08-19T13:32:11;2.88;;;0.90;;
22871;SDS011;11603;44.910;8.630;2022-08-19T13:34:56;2.15;;;1.00;;
22871;SDS011;11603;44.910;8.630;2022-08-19T13:37:21;1.92;;;0.80;;
22871;SDS011;11603;44.910;8.630;2022-08-19T13:40:06;3.63;;;0.98;;
22871;SDS011;11603;44.910;8.630;2022-08-19T13:42:37;1.50;;;0.80;;
22871;SDS011;11603;44.910;8.630;2022-08-19T13:45:02;2.53;;;0.90;;
22871;SDS011;11603;44.910;8.630;2022-08-19T13:47:31;3.13;;;0.90;;
22871;SDS011;11603;44.910;8.630;2022-08-19T13:49:59;4.20;;;1.00;;
22871;SDS011;11603;44.910;8.630;2022-08-19T13:52:27;2.25;;;0.90;;
22871;SDS011;11603;44.910;8.630;2022-08-19T13:54:52;3.35;;;0.90;;
22871;SDS011;11603;44.910;8.630;2022-08-19T13:57:19;1.50;;;0.85;;
22871;SDS011;11603;44.910;8.630;2022-08-19T13:59:45;3.88;;;0.95;;
22871;SDS011;11603;44.910;8.630;2022-08-19T14:02:11;3.03;;;1.00;;
22871;SDS011;11603;44.910;8.630;2022-08-19T14:04:36;1.35;;;0.80;;
22871;SDS011;11603;44.910;8.630;2022-08-19T14:07:03;3.15;;;0.80;;
22871;SDS011;11603;44.910;8.630;2022-08-19T14:09:29;2.25;;;1.10;;
22871;SDS011;11603;44.910;8.630;2022-08-19T14:11:55;4.95;;;0.95;;
22871;SDS011;11603;44.910;8.630;2022-08-19T14:14:21;2.80;;;0.90;;
22871;SDS011;11603;44.910;8.630;2022-08-19T14:16:47;4.05;;;0.85;;
22871;SDS011;11603;44.910;8.630;2022-08-19T14:19:13;2.42;;;0.80;;
22871;SDS011;11603;44.910;8.630;2022-08-19T14:21:39;2.20;;;0.90;;
22871;SDS011;11603;44.910;8.630;2022-08-19T14:24:06;2.38;;;0.80;;
22871;SDS011;11603;44.910;8.630;2022-08-19T14:26:32;5.10;;;0.95;;
22871;SDS011;11603;44.910;8.630;2022-08-19T14:32:29;1.48;;;0.80;;
22871;SDS011;11603;44.910;8.630;2022-08-19T14:34:55;1.95;;;0.80;;
22871;SDS011;11603;44.910;8.630;2022-08-19T14:37:20;2.10;;;1.17;;
22871;SDS011;11603;44.910;8.630;2022-08-19T14:39:47;3.50;;;0.90;;
22871;SDS011;11603;44.910;8.630;2022-08-19T14:42:13;1.50;;;0.73;;
22871;SDS011;11603;44.910;8.630;2022-08-19T14:44:40;3.75;;;1.00;;
22871;SDS011;11603;44.910;8.630;2022-08-19T14:47:06;4.53;;;0.70;;
22871;SDS011;11603;44.910;8.630;2022-08-19T14:49:32;2.78;;;0.80;;
22871;SDS011;11603;44.910;8.630;2022-08-19T14:51:58;5.40;;;0.90;;
22871;SDS011;11603;44.910;8.630;2022-08-19T14:54:24;2.53;;;0.77;;
22871;SDS011;11603;44.910;8.630;2022-08-19T14:56:50;2.33;;;0.80;;
22871;SDS011;11603;44.910;8.630;2022-08-19T14:59:15;1.00;;;0.73;;
22871;SDS011;11603;44.910;8.630;2022-08-19T15:01:41;5.65;;;1.10;;
22871;SDS011;11603;44.910;8.630;2022-08-19T15:04:06;1.00;;;0.70;;
22871;SDS011;11603;44.910;8.630;2022-08-19T15:06:32;1.77;;;0.75;;
22871;SDS011;11603;44.910;8.630;2022-08-19T15:08:58;1.75;;;0.63;;
22871;SDS011;11603;44.910;8.630;2022-08-19T15:11:25;1.67;;;0.80;;
22871;SDS011;11603;44.910;8.630;2022-08-19T15:13:53;2.63;;;0.70;;
22871;SDS011;11603;44.910;8.630;2022-08-19T15:16:19;2.03;;;0.70;;
22871;SDS011;11603;44.910;8.630;2022-08-19T15:18:48;1.77;;;0.50;;
22871;SDS011;11603;44.910;8.630;2022-08-19T15:21:15;1.13;;;0.60;;
22871;SDS011;11603;44.910;8.630;2022-08-19T15:23:47;7.30;;;0.85;;
22871;SDS011;11603;44.910;8.630;2022-08-19T15:26:14;3.78;;;1.02;;
22871;SDS011;11603;44.910;8.630;2022-08-19T15:28:41;4.22;;;0.80;;
22871;SDS011;11603;44.910;8.630;2022-08-19T15:31:07;1.67;;;0.60;;
22871;SDS011;11603;44.910;8.630;2022-08-19T15:33:33;2.78;;;0.80;;
22871;SDS011;11603;44.910;8.630;2022-08-19T15:36:04;1.55;;;0.68;;
22871;SDS011;11603;44.910;8.630;2022-08-19T15:38:30;2.47;;;0.80;;
22871;SDS011;11603;44.910;8.630;2022-08-19T15:40:59;2.53;;;0.80;;
22871;SDS011;11603;44.910;8.630;2022-08-19T15:43:47;2.40;;;0.60;;
22871;SDS011;11603;44.910;8.630;2022-08-19T15:46:19;1.48;;;0.80;;
22871;SDS011;11603;44.910;8.630;2022-08-19T15:48:47;3.72;;;1.10;;